Terminal Aerodrome Forecast
Issued by NWS Tallahassee, FL

Current Version | Previous Version | Text Only | Print | Product List | Glossary On
Versions: 1 2 3 4 5 6 7 8 9 10 11 12 13 14 15
734
FTUS42 KTAE 242017 AAA
TAFTLH
TAF AMD
KTLH 242017Z 2420/2518 17007KT P6SM VCTS SCT040CB SCT250
      TEMPO 2420/2422 VRB15G30KT 2SM TSRA SCT025 BKN040CB
     FM250000 14005KT P6SM SCT250=

USA.gov is the U.S. government's official web portal to all federal, state and local government web resources and services.